sensor_id;sensor_type;location;lat;lon;timestamp;P1;P2;P0
72793;PMS5003;63436;26.334;50.194;2023-03-11T00:01:23;50;44;
72793;PMS5003;63436;26.334;50.194;2023-03-11T00:03:49;53;49;
72793;PMS5003;63436;26.334;50.194;2023-03-11T00:06:14;49;47;
72793;PMS5003;63436;26.334;50.194;2023-03-11T00:08:39;54;50;
72793;PMS5003;63436;26.334;50.194;2023-03-11T00:11:05;54;50;
72793;PMS5003;63436;26.334;50.194;2023-03-11T00:13:31;57;56;
72793;PMS5003;63436;26.334;50.194;2023-03-11T00:15:56;50;45;
72793;PMS5003;63436;26.334;50.194;2023-03-11T00:18:22;61;56;
72793;PMS5003;63436;26.334;50.194;2023-03-11T00:20:47;53;52;
72793;PMS5003;63436;26.334;50.194;2023-03-11T00:23:13;59;57;
72793;PMS5003;63436;26.334;50.194;2023-03-11T00:25:39;55;51;
72793;PMS5003;63436;26.334;50.194;2023-03-11T00:28:04;62;56;
72793;PMS5003;63436;26.334;50.194;2023-03-11T00:30:30;71;58;
72793;PMS5003;63436;26.334;50.194;2023-03-11T00:32:55;63;59;
72793;PMS5003;63436;26.334;50.194;2023-03-11T00:35:22;64;58;
72793;PMS5003;63436;26.334;50.194;2023-03-11T00:37:47;67;63;
72793;PMS5003;63436;26.334;50.194;2023-03-11T00:40:12;66;62;
72793;PMS5003;63436;26.334;50.194;2023-03-11T00:42:37;69;68;
72793;PMS5003;63436;26.334;50.194;2023-03-11T00:45:03;65;65;
72793;PMS5003;63436;26.334;50.194;2023-03-11T00:47:27;72;69;
72793;PMS5003;63436;26.334;50.194;2023-03-11T00:49:53;66;64;
72793;PMS5003;63436;26.334;50.194;2023-03-11T00:52:20;77;71;
72793;PMS5003;63436;26.334;50.194;2023-03-11T00:54:44;74;71;
72793;PMS5003;63436;26.334;50.194;2023-03-11T00:57:10;73;69;
72793;PMS5003;63436;26.334;50.194;2023-03-11T00:59:35;78;69;
72793;PMS5003;63436;26.334;50.194;2023-03-11T01:02:00;76;67;
72793;PMS5003;63436;26.334;50.194;2023-03-11T01:04:26;71;67;
72793;PMS5003;63436;26.334;50.194;2023-03-11T01:06:52;78;73;
72793;PMS5003;63436;26.334;50.194;2023-03-11T01:09:16;77;75;
72793;PMS5003;63436;26.334;50.194;2023-03-11T01:11:42;80;74;
72793;PMS5003;63436;26.334;50.194;2023-03-11T01:14:09;80;78;
72793;PMS5003;63436;26.334;50.194;2023-03-11T01:16:33;72;68;
72793;PMS5003;63436;26.334;50.194;2023-03-11T01:18:58;80;74;
72793;PMS5003;63436;26.334;50.194;2023-03-11T01:21:24;76;75;
72793;PMS5003;63436;26.334;50.194;2023-03-11T01:23:49;80;79;
72793;PMS5003;63436;26.334;50.194;2023-03-11T01:26:15;78;74;
72793;PMS5003;63436;26.334;50.194;2023-03-11T01:28:40;87;79;
72793;PMS5003;63436;26.334;50.194;2023-03-11T01:31:07;85;79;
72793;PMS5003;63436;26.334;50.194;2023-03-11T01:33:31;82;79;
72793;PMS5003;63436;26.334;50.194;2023-03-11T01:35:56;88;83;
72793;PMS5003;63436;26.334;50.194;2023-03-11T01:38:21;86;80;
72793;PMS5003;63436;26.334;50.194;2023-03-11T01:40:47;83;79;
72793;PMS5003;63436;26.334;50.194;2023-03-11T01:45:40;81;79;
72793;PMS5003;63436;26.334;50.194;2023-03-11T01:48:02;83;81;
72793;PMS5003;63436;26.334;50.194;2023-03-11T01:50:29;93;86;
72793;PMS5003;63436;26.334;50.194;2023-03-11T01:52:54;92;87;
72793;PMS5003;63436;26.334;50.194;2023-03-11T01:55:19;89;81;
72793;PMS5003;63436;26.334;50.194;2023-03-11T01:57:44;87;81;
72793;PMS5003;63436;26.334;50.194;2023-03-11T02:00:11;86;81;
72793;PMS5003;63436;26.334;50.194;2023-03-11T02:02:35;85;81;
72793;PMS5003;63436;26.334;50.194;2023-03-11T02:05:01;90;86;
72793;PMS5003;63436;26.334;50.194;2023-03-11T02:07:27;87;86;
72793;PMS5003;63436;26.334;50.194;2023-03-11T02:09:53;90;88;
72793;PMS5003;63436;26.334;50.194;2023-03-11T02:12:18;88;85;
72793;PMS5003;63436;26.334;50.194;2023-03-11T02:14:45;94;89;
72793;PMS5003;63436;26.334;50.194;2023-03-11T02:17:10;100;90;
72793;PMS5003;63436;26.334;50.194;2023-03-11T02:19:37;90;83;
72793;PMS5003;63436;26.334;50.194;2023-03-11T02:22:01;89;86;
72793;PMS5003;63436;26.334;50.194;2023-03-11T02:24:28;98;97;
72793;PMS5003;63436;26.334;50.194;2023-03-11T02:26:53;98;93;
72793;PMS5003;63436;26.334;50.194;2023-03-11T02:29:19;104;99;
72793;PMS5003;63436;26.334;50.194;2023-03-11T02:31:44;95;93;
72793;PMS5003;63436;26.334;50.194;2023-03-11T02:34:10;97;96;
72793;PMS5003;63436;26.334;50.194;2023-03-11T02:36:36;105;99;
72793;PMS5003;63436;26.334;50.194;2023-03-11T02:38:59;94;93;
72793;PMS5003;63436;26.334;50.194;2023-03-11T02:41:25;107;101;
72793;PMS5003;63436;26.334;50.194;2023-03-11T02:43:50;107;101;
72793;PMS5003;63436;26.334;50.194;2023-03-11T02:46:15;112;105;
72793;PMS5003;63436;26.334;50.194;2023-03-11T02:48:41;96;96;
72793;PMS5003;63436;26.334;50.194;2023-03-11T02:51:07;104;99;
72793;PMS5003;63436;26.334;50.194;2023-03-11T02:53:33;105;100;
72793;PMS5003;63436;26.334;50.194;2023-03-11T02:55:57;99;98;
72793;PMS5003;63436;26.334;50.194;2023-03-11T02:58:23;103;102;
72793;PMS5003;63436;26.334;50.194;2023-03-11T03:00:48;111;107;
72793;PMS5003;63436;26.334;50.194;2023-03-11T03:03:14;116;111;
72793;PMS5003;63436;26.334;50.194;2023-03-11T03:05:39;108;102;
72793;PMS5003;63436;26.334;50.194;2023-03-11T03:08:05;108;107;
72793;PMS5003;63436;26.334;50.194;2023-03-11T03:10:30;111;107;
72793;PMS5003;63436;26.334;50.194;2023-03-11T03:12:56;114;109;
72793;PMS5003;63436;26.334;50.194;2023-03-11T03:15:20;122;116;
72793;PMS5003;63436;26.334;50.194;2023-03-11T03:17:46;120;113;
72793;PMS5003;63436;26.334;50.194;2023-03-11T03:20:13;115;106;
72793;PMS5003;63436;26.334;50.194;2023-03-11T03:22:37;118;110;
72793;PMS5003;63436;26.334;50.194;2023-03-11T03:25:03;121;112;
72793;PMS5003;63436;26.334;50.194;2023-03-11T03:27:28;116;111;
72793;PMS5003;63436;26.334;50.194;2023-03-11T03:29:54;115;114;
72793;PMS5003;63436;26.334;50.194;2023-03-11T03:32:19;117;107;
72793;PMS5003;63436;26.334;50.194;2023-03-11T03:34:45;125;117;
72793;PMS5003;63436;26.334;50.194;2023-03-11T03:37:09;112;108;
72793;PMS5003;63436;26.334;50.194;2023-03-11T03:39:34;116;108;
72793;PMS5003;63436;26.334;50.194;2023-03-11T03:42:01;123;109;
72793;PMS5003;63436;26.334;50.194;2023-03-11T03:44:26;116;108;
72793;PMS5003;63436;26.334;50.194;2023-03-11T03:46:51;118;110;
72793;PMS5003;63436;26.334;50.194;2023-03-11T03:49:17;110;107;
72793;PMS5003;63436;26.334;50.194;2023-03-11T03:51:42;114;107;
72793;PMS5003;63436;26.334;50.194;2023-03-11T03:54:07;119;112;
72793;PMS5003;63436;26.334;50.194;2023-03-11T03:56:33;118;112;
72793;PMS5003;63436;26.334;50.194;2023-03-11T03:58:59;113;105;
72793;PMS5003;63436;26.334;50.194;2023-03-11T04:01:24;113;107;
72793;PMS5003;63436;26.334;50.194;2023-03-11T04:03:50;113;110;
72793;PMS5003;63436;26.334;50.194;2023-03-11T04:06:16;112;109;
72793;PMS5003;63436;26.334;50.194;2023-03-11T04:08:41;119;112;
72793;PMS5003;63436;26.334;50.194;2023-03-11T04:11:06;117;110;
72793;PMS5003;63436;26.334;50.194;2023-03-11T04:13:31;112;108;
72793;PMS5003;63436;26.334;50.194;2023-03-11T04:15:57;118;113;
72793;PMS5003;63436;26.334;50.194;2023-03-11T04:18:24;112;107;
72793;PMS5003;63436;26.334;50.194;2023-03-11T04:20:48;111;108;
72793;PMS5003;63436;26.334;50.194;2023-03-11T04:23:13;114;107;
72793;PMS5003;63436;26.334;50.194;2023-03-11T04:25:39;99;92;
72793;PMS5003;63436;26.334;50.194;2023-03-11T04:28:05;97;93;
72793;PMS5003;63436;26.334;50.194;2023-03-11T04:30:30;106;95;
72793;PMS5003;63436;26.334;50.194;2023-03-11T04:32:56;91;87;
72793;PMS5003;63436;26.334;50.194;2023-03-11T04:35:21;94;88;
72793;PMS5003;63436;26.334;50.194;2023-03-11T04:37:46;85;79;
72793;PMS5003;63436;26.334;50.194;2023-03-11T04:40:12;86;79;
72793;PMS5003;63436;26.334;50.194;2023-03-11T04:42:37;89;83;
72793;PMS5003;63436;26.334;50.194;2023-03-11T04:45:03;89;83;
72793;PMS5003;63436;26.334;50.194;2023-03-11T04:47:28;86;74;
72793;PMS5003;63436;26.334;50.194;2023-03-11T04:49:54;76;72;
72793;PMS5003;63436;26.334;50.194;2023-03-11T04:52:19;75;73;
72793;PMS5003;63436;26.334;50.194;2023-03-11T04:54:46;70;66;
72793;PMS5003;63436;26.334;50.194;2023-03-11T04:57:10;68;67;
72793;PMS5003;63436;26.334;50.194;2023-03-11T04:59:36;72;64;
72793;PMS5003;63436;26.334;50.194;2023-03-11T05:02:01;69;65;
72793;PMS5003;63436;26.334;50.194;2023-03-11T05:04:27;61;61;
72793;PMS5003;63436;26.334;50.194;2023-03-11T05:06:53;67;62;
72793;PMS5003;63436;26.334;50.194;2023-03-11T05:09:19;64;61;
72793;PMS5003;63436;26.334;50.194;2023-03-11T05:11:44;67;60;
72793;PMS5003;63436;26.334;50.194;2023-03-11T05:14:10;66;64;
72793;PMS5003;63436;26.334;50.194;2023-03-11T05:16:36;65;56;
72793;PMS5003;63436;26.334;50.194;2023-03-11T05:19:00;66;62;
72793;PMS5003;63436;26.334;50.194;2023-03-11T05:21:25;66;61;
72793;PMS5003;63436;26.334;50.194;2023-03-11T05:23:52;68;64;
72793;PMS5003;63436;26.334;50.194;2023-03-11T05:26:16;60;56;
72793;PMS5003;63436;26.334;50.194;2023-03-11T05:28:42;56;53;
72793;PMS5003;63436;26.334;50.194;2023-03-11T05:31:07;51;49;
72793;PMS5003;63436;26.334;50.194;2023-03-11T05:33:32;50;47;
72793;PMS5003;63436;26.334;50.194;2023-03-11T05:36:02;58;54;
72793;PMS5003;63436;26.334;50.194;2023-03-11T05:38:23;53;49;
72793;PMS5003;63436;26.334;50.194;2023-03-11T05:40:48;55;52;
72793;PMS5003;63436;26.334;50.194;2023-03-11T05:43:14;59;55;
72793;PMS5003;63436;26.334;50.194;2023-03-11T05:45:39;53;48;
72793;PMS5003;63436;26.334;50.194;2023-03-11T05:48:05;59;54;
72793;PMS5003;63436;26.334;50.194;2023-03-11T05:50:30;53;48;
72793;PMS5003;63436;26.334;50.194;2023-03-11T05:52:56;57;51;
72793;PMS5003;63436;26.334;50.194;2023-03-11T05:55:21;53;47;
72793;PMS5003;63436;26.334;50.194;2023-03-11T05:57:49;56;49;
72793;PMS5003;63436;26.334;50.194;2023-03-11T06:00:12;52;47;
72793;PMS5003;63436;26.334;50.194;2023-03-11T06:02:37;44;41;
72793;PMS5003;63436;26.334;50.194;2023-03-11T06:05:03;43;41;
72793;PMS5003;63436;26.334;50.194;2023-03-11T06:07:28;41;37;
72793;PMS5003;63436;26.334;50.194;2023-03-11T06:09:53;41;38;
72793;PMS5003;63436;26.334;50.194;2023-03-11T06:12:19;35;33;
72793;PMS5003;63436;26.334;50.194;2023-03-11T06:14:45;41;39;
72793;PMS5003;63436;26.334;50.194;2023-03-11T06:17:10;43;40;
72793;PMS5003;63436;26.334;50.194;2023-03-11T06:19:35;34;33;
72793;PMS5003;63436;26.334;50.194;2023-03-11T06:22:01;43;40;
72793;PMS5003;63436;26.334;50.194;2023-03-11T06:24:27;49;42;
72793;PMS5003;63436;26.334;50.194;2023-03-11T06:26:52;41;38;
72793;PMS5003;63436;26.334;50.194;2023-03-11T06:29:18;40;38;
72793;PMS5003;63436;26.334;50.194;2023-03-11T06:31:43;47;42;
72793;PMS5003;63436;26.334;50.194;2023-03-11T06:34:09;45;44;
72793;PMS5003;63436;26.334;50.194;2023-03-11T06:36:35;49;49;
72793;PMS5003;63436;26.334;50.194;2023-03-11T06:38:59;48;45;
72793;PMS5003;63436;26.334;50.194;2023-03-11T06:41:25;50;44;
72793;PMS5003;63436;26.334;50.194;2023-03-11T06:43:50;50;44;
72793;PMS5003;63436;26.334;50.194;2023-03-11T06:46:16;46;42;
72793;PMS5003;63436;26.334;50.194;2023-03-11T06:48:41;47;47;
72793;PMS5003;63436;26.334;50.194;2023-03-11T06:51:07;52;47;
72793;PMS5003;63436;26.334;50.194;2023-03-11T06:53:32;55;51;
72793;PMS5003;63436;26.334;50.194;2023-03-11T06:55:58;53;48;
72793;PMS5003;63436;26.334;50.194;2023-03-11T06:58:22;45;41;
72793;PMS5003;63436;26.334;50.194;2023-03-11T07:00:48;50;44;
72793;PMS5003;63436;26.334;50.194;2023-03-11T07:03:17;44;41;
72793;PMS5003;63436;26.334;50.194;2023-03-11T07:05:39;42;40;
72793;PMS5003;63436;26.334;50.194;2023-03-11T07:08:04;40;38;
72793;PMS5003;63436;26.334;50.194;2023-03-11T07:10:30;39;37;
72793;PMS5003;63436;26.334;50.194;2023-03-11T07:12:55;40;38;
72793;PMS5003;63436;26.334;50.194;2023-03-11T07:15:21;41;39;
72793;PMS5003;63436;26.334;50.194;2023-03-11T07:17:47;43;40;
72793;PMS5003;63436;26.334;50.194;2023-03-11T07:20:13;45;43;
72793;PMS5003;63436;26.334;50.194;2023-03-11T07:22:43;41;40;
72793;PMS5003;63436;26.334;50.194;2023-03-11T07:25:04;41;37;
72793;PMS5003;63436;26.334;50.194;2023-03-11T07:27:30;46;41;
72793;PMS5003;63436;26.334;50.194;2023-03-11T07:29:54;47;42;
72793;PMS5003;63436;26.334;50.194;2023-03-11T07:32:20;47;44;
72793;PMS5003;63436;26.334;50.194;2023-03-11T07:34:45;44;44;
72793;PMS5003;63436;26.334;50.194;2023-03-11T07:37:11;44;40;
72793;PMS5003;63436;26.334;50.194;2023-03-11T07:39:38;40;36;
72793;PMS5003;63436;26.334;50.194;2023-03-11T07:42:03;39;37;
72793;PMS5003;63436;26.334;50.194;2023-03-11T07:44:27;44;39;
72793;PMS5003;63436;26.334;50.194;2023-03-11T07:46:53;38;37;
72793;PMS5003;63436;26.334;50.194;2023-03-11T07:49:18;40;36;
72793;PMS5003;63436;26.334;50.194;2023-03-11T07:51:44;35;35;
72793;PMS5003;63436;26.334;50.194;2023-03-11T07:54:09;46;39;
72793;PMS5003;63436;26.334;50.194;2023-03-11T07:56:34;40;37;
72793;PMS5003;63436;26.334;50.194;2023-03-11T07:59:00;38;35;
72793;PMS5003;63436;26.334;50.194;2023-03-11T08:01:25;37;36;
72793;PMS5003;63436;26.334;50.194;2023-03-11T08:03:50;43;40;
72793;PMS5003;63436;26.334;50.194;2023-03-11T08:06:15;43;40;
72793;PMS5003;63436;26.334;50.194;2023-03-11T08:08:40;42;40;
72793;PMS5003;63436;26.334;50.194;2023-03-11T08:11:06;41;38;
72793;PMS5003;63436;26.334;50.194;2023-03-11T08:13:31;40;39;
72793;PMS5003;63436;26.334;50.194;2023-03-11T08:15:56;46;37;
72793;PMS5003;63436;26.334;50.194;2023-03-11T08:18:22;37;35;
72793;PMS5003;63436;26.334;50.194;2023-03-11T08:20:46;41;37;
72793;PMS5003;63436;26.334;50.194;2023-03-11T08:23:12;43;38;
72793;PMS5003;63436;26.334;50.194;2023-03-11T08:25:38;42;40;
72793;PMS5003;63436;26.334;50.194;2023-03-11T08:28:03;42;41;
72793;PMS5003;63436;26.334;50.194;2023-03-11T08:30:28;38;37;
72793;PMS5003;63436;26.334;50.194;2023-03-11T08:32:54;44;40;
72793;PMS5003;63436;26.334;50.194;2023-03-11T08:35:20;46;40;
72793;PMS5003;63436;26.334;50.194;2023-03-11T08:37:44;38;37;
72793;PMS5003;63436;26.334;50.194;2023-03-11T08:40:11;43;41;
72793;PMS5003;63436;26.334;50.194;2023-03-11T08:42:35;47;43;
72793;PMS5003;63436;26.334;50.194;2023-03-11T08:45:01;43;41;
72793;PMS5003;63436;26.334;50.194;2023-03-11T08:47:27;45;41;
72793;PMS5003;63436;26.334;50.194;2023-03-11T08:49:52;47;44;
72793;PMS5003;63436;26.334;50.194;2023-03-11T08:52:18;51;44;
72793;PMS5003;63436;26.334;50.194;2023-03-11T08:54:45;44;40;
72793;PMS5003;63436;26.334;50.194;2023-03-11T08:57:09;45;42;
72793;PMS5003;63436;26.334;50.194;2023-03-11T08:59:35;45;42;
72793;PMS5003;63436;26.334;50.194;2023-03-11T09:02:01;49;45;
72793;PMS5003;63436;26.334;50.194;2023-03-11T09:04:26;52;45;
72793;PMS5003;63436;26.334;50.194;2023-03-11T09:06:52;49;47;
72793;PMS5003;63436;26.334;50.194;2023-03-11T09:09:17;49;46;
72793;PMS5003;63436;26.334;50.194;2023-03-11T09:11:43;51;50;
72793;PMS5003;63436;26.334;50.194;2023-03-11T09:14:08;56;51;
72793;PMS5003;63436;26.334;50.194;2023-03-11T09:16:34;49;49;
72793;PMS5003;63436;26.334;50.194;2023-03-11T09:18:58;51;49;
72793;PMS5003;63436;26.334;50.194;2023-03-11T09:21:24;58;52;
72793;PMS5003;63436;26.334;50.194;2023-03-11T09:23:51;52;49;
72793;PMS5003;63436;26.334;50.194;2023-03-11T09:26:15;53;52;
72793;PMS5003;63436;26.334;50.194;2023-03-11T09:28:41;60;57;
72793;PMS5003;63436;26.334;50.194;2023-03-11T09:31:08;56;56;
72793;PMS5003;63436;26.334;50.194;2023-03-11T09:33:35;55;53;
72793;PMS5003;63436;26.334;50.194;2023-03-11T09:35:57;57;56;
72793;PMS5003;63436;26.334;50.194;2023-03-11T09:38:23;61;58;
72793;PMS5003;63436;26.334;50.194;2023-03-11T09:40:51;57;54;
72793;PMS5003;63436;26.334;50.194;2023-03-11T09:43:15;52;49;
72793;PMS5003;63436;26.334;50.194;2023-03-11T09:45:39;57;55;
72793;PMS5003;63436;26.334;50.194;2023-03-11T09:48:08;53;51;
72793;PMS5003;63436;26.334;50.194;2023-03-11T09:50:32;53;50;
72793;PMS5003;63436;26.334;50.194;2023-03-11T09:52:58;46;46;
72793;PMS5003;63436;26.334;50.194;2023-03-11T09:55:31;53;51;
72793;PMS5003;63436;26.334;50.194;2023-03-11T09:57:46;51;48;
72793;PMS5003;63436;26.334;50.194;2023-03-11T10:00:12;49;47;
72793;PMS5003;63436;26.334;50.194;2023-03-11T10:02:37;50;47;
72793;PMS5003;63436;26.334;50.194;2023-03-11T10:05:05;46;46;
72793;PMS5003;63436;26.334;50.194;2023-03-11T10:07:30;51;44;
72793;PMS5003;63436;26.334;50.194;2023-03-11T10:09:54;48;48;
72793;PMS5003;63436;26.334;50.194;2023-03-11T10:12:21;43;40;
72793;PMS5003;63436;26.334;50.194;2023-03-11T10:14:49;43;41;
72793;PMS5003;63436;26.334;50.194;2023-03-11T10:17:13;49;46;
72793;PMS5003;63436;26.334;50.194;2023-03-11T10:19:37;54;50;
72793;PMS5003;63436;26.334;50.194;2023-03-11T10:22:04;65;55;
72793;PMS5003;63436;26.334;50.194;2023-03-11T10:26:53;73;55;
72793;PMS5003;63436;26.334;50.194;2023-03-11T10:29:18;49;43;
72793;PMS5003;63436;26.334;50.194;2023-03-11T10:31:44;45;41;
72793;PMS5003;63436;26.334;50.194;2023-03-11T10:34:10;50;45;
72793;PMS5003;63436;26.334;50.194;2023-03-11T10:36:34;42;39;
72793;PMS5003;63436;26.334;50.194;2023-03-11T10:38:58;40;39;
72793;PMS5003;63436;26.334;50.194;2023-03-11T10:41:26;42;40;
72793;PMS5003;63436;26.334;50.194;2023-03-11T10:43:51;46;41;
72793;PMS5003;63436;26.334;50.194;2023-03-11T10:46:17;50;46;
72793;PMS5003;63436;26.334;50.194;2023-03-11T10:48:41;37;35;
72793;PMS5003;63436;26.334;50.194;2023-03-11T10:51:11;37;36;
72793;PMS5003;63436;26.334;50.194;2023-03-11T10:53:31;42;38;
72793;PMS5003;63436;26.334;50.194;2023-03-11T10:56:02;36;33;
72793;PMS5003;63436;26.334;50.194;2023-03-11T10:58:23;35;34;
72793;PMS5003;63436;26.334;50.194;2023-03-11T11:03:15;52;45;
72793;PMS5003;63436;26.334;50.194;2023-03-11T11:05:38;45;39;
72793;PMS5003;63436;26.334;50.194;2023-03-11T11:08:05;65;53;
72793;PMS5003;63436;26.334;50.194;2023-03-11T11:10:30;62;48;
72793;PMS5003;63436;26.334;50.194;2023-03-11T11:12:56;69;53;
72793;PMS5003;63436;26.334;50.194;2023-03-11T11:15:21;60;48;
72793;PMS5003;63436;26.334;50.194;2023-03-11T11:17:46;49;41;
72793;PMS5003;63436;26.334;50.194;2023-03-11T11:20:14;37;35;
72793;PMS5003;63436;26.334;50.194;2023-03-11T11:22:37;38;36;
72793;PMS5003;63436;26.334;50.194;2023-03-11T11:25:02;35;34;
72793;PMS5003;63436;26.334;50.194;2023-03-11T11:27:28;33;31;
72793;PMS5003;63436;26.334;50.194;2023-03-11T11:32:22;33;33;
72793;PMS5003;63436;26.334;50.194;2023-03-11T11:37:10;33;33;
72793;PMS5003;63436;26.334;50.194;2023-03-11T11:39:38;35;32;
72793;PMS5003;63436;26.334;50.194;2023-03-11T11:42:00;31;30;
72793;PMS5003;63436;26.334;50.194;2023-03-11T11:44:27;30;28;
72793;PMS5003;63436;26.334;50.194;2023-03-11T11:46:52;31;30;
72793;PMS5003;63436;26.334;50.194;2023-03-11T11:49:20;30;28;
72793;PMS5003;63436;26.334;50.194;2023-03-11T11:51:43;33;31;
72793;PMS5003;63436;26.334;50.194;2023-03-11T11:54:10;35;32;
72793;PMS5003;63436;26.334;50.194;2023-03-11T11:56:33;27;26;
72793;PMS5003;63436;26.334;50.194;2023-03-11T11:59:07;30;28;
72793;PMS5003;63436;26.334;50.194;2023-03-11T12:01:27;27;27;
72793;PMS5003;63436;26.334;50.194;2023-03-11T12:03:58;30;26;
72793;PMS5003;63436;26.334;50.194;2023-03-11T12:06:16;30;30;
72793;PMS5003;63436;26.334;50.194;2023-03-11T12:08:41;30;28;
72793;PMS5003;63436;26.334;50.194;2023-03-11T12:11:05;32;30;
72793;PMS5003;63436;26.334;50.194;2023-03-11T12:13:38;30;29;
72793;PMS5003;63436;26.334;50.194;2023-03-11T12:15:58;27;27;
72793;PMS5003;63436;26.334;50.194;2023-03-11T12:18:22;32;29;
72793;PMS5003;63436;26.334;50.194;2023-03-11T12:20:48;29;27;
72793;PMS5003;63436;26.334;50.194;2023-03-11T12:23:19;29;29;
72793;PMS5003;63436;26.334;50.194;2023-03-11T12:25:39;31;29;
72793;PMS5003;63436;26.334;50.194;2023-03-11T12:28:08;32;30;
72793;PMS5003;63436;26.334;50.194;2023-03-11T12:30:30;24;24;
72793;PMS5003;63436;26.334;50.194;2023-03-11T12:32:56;29;29;
72793;PMS5003;63436;26.334;50.194;2023-03-11T12:35:22;32;32;
72793;PMS5003;63436;26.334;50.194;2023-03-11T12:37:46;38;31;
72793;PMS5003;63436;26.334;50.194;2023-03-11T12:42:37;28;28;
72793;PMS5003;63436;26.334;50.194;2023-03-11T12:47:27;35;34;
72793;PMS5003;63436;26.334;50.194;2023-03-11T12:49:53;31;31;
72793;PMS5003;63436;26.334;50.194;2023-03-11T12:52:19;29;27;
72793;PMS5003;63436;26.334;50.194;2023-03-11T12:54:44;35;29;
72793;PMS5003;63436;26.334;50.194;2023-03-11T12:57:13;33;24;
72793;PMS5003;63436;26.334;50.194;2023-03-11T12:59:41;25;23;
72793;PMS5003;63436;26.334;50.194;2023-03-11T13:02:03;30;29;
72793;PMS5003;63436;26.334;50.194;2023-03-11T13:04:36;30;28;
72793;PMS5003;63436;26.334;50.194;2023-03-11T13:09:18;26;23;
72793;PMS5003;63436;26.334;50.194;2023-03-11T13:11:44;28;26;
72793;PMS5003;63436;26.334;50.194;2023-03-11T13:14:08;36;32;
72793;PMS5003;63436;26.334;50.194;2023-03-11T13:16:34;29;27;
72793;PMS5003;63436;26.334;50.194;2023-03-11T13:18:59;35;32;
72793;PMS5003;63436;26.334;50.194;2023-03-11T13:23:48;27;27;
72793;PMS5003;63436;26.334;50.194;2023-03-11T13:28:44;26;25;
72793;PMS5003;63436;26.334;50.194;2023-03-11T13:31:11;31;28;
72793;PMS5003;63436;26.334;50.194;2023-03-11T13:33:33;28;27;
72793;PMS5003;63436;26.334;50.194;2023-03-11T13:36:00;25;24;
72793;PMS5003;63436;26.334;50.194;2023-03-11T13:40:48;47;41;
72793;PMS5003;63436;26.334;50.194;2023-03-11T13:43:13;78;53;
72793;PMS5003;63436;26.334;50.194;2023-03-11T13:45:37;90;66;
72793;PMS5003;63436;26.334;50.194;2023-03-11T13:48:05;31;30;
72793;PMS5003;63436;26.334;50.194;2023-03-11T13:50:28;38;35;
72793;PMS5003;63436;26.334;50.194;2023-03-11T13:52:52;26;26;
72793;PMS5003;63436;26.334;50.194;2023-03-11T13:55:18;34;31;
72793;PMS5003;63436;26.334;50.194;2023-03-11T14:00:13;37;31;
72793;PMS5003;63436;26.334;50.194;2023-03-11T14:02:34;36;32;
72793;PMS5003;63436;26.334;50.194;2023-03-11T14:05:03;32;28;
72793;PMS5003;63436;26.334;50.194;2023-03-11T14:07:27;56;43;
72793;PMS5003;63436;26.334;50.194;2023-03-11T14:09:51;47;35;
72793;PMS5003;63436;26.334;50.194;2023-03-11T14:12:16;33;31;
72793;PMS5003;63436;26.334;50.194;2023-03-11T14:14:43;29;27;
72793;PMS5003;63436;26.334;50.194;2023-03-11T14:17:09;29;29;
72793;PMS5003;63436;26.334;50.194;2023-03-11T14:19:31;26;25;
72793;PMS5003;63436;26.334;50.194;2023-03-11T14:21:57;34;33;
72793;PMS5003;63436;26.334;50.194;2023-03-11T14:24:24;40;36;
72793;PMS5003;63436;26.334;50.194;2023-03-11T14:26:48;29;28;
72793;PMS5003;63436;26.334;50.194;2023-03-11T14:29:15;32;28;
72793;PMS5003;63436;26.334;50.194;2023-03-11T14:31:41;35;30;
72793;PMS5003;63436;26.334;50.194;2023-03-11T14:36:30;32;32;
72793;PMS5003;63436;26.334;50.194;2023-03-11T14:38:56;33;29;
72793;PMS5003;63436;26.334;50.194;2023-03-11T14:41:21;68;56;
72793;PMS5003;63436;26.334;50.194;2023-03-11T14:43:47;59;42;
72793;PMS5003;63436;26.334;50.194;2023-03-11T14:46:14;35;34;
72793;PMS5003;63436;26.334;50.194;2023-03-11T14:48:37;34;33;
72793;PMS5003;63436;26.334;50.194;2023-03-11T14:51:03;35;32;
72793;PMS5003;63436;26.334;50.194;2023-03-11T14:53:29;60;42;
72793;PMS5003;63436;26.334;50.194;2023-03-11T14:55:55;50;45;
72793;PMS5003;63436;26.334;50.194;2023-03-11T14:58:20;36;33;
72793;PMS5003;63436;26.334;50.194;2023-03-11T15:00:45;35;31;
72793;PMS5003;63436;26.334;50.194;2023-03-11T15:03:12;33;32;
72793;PMS5003;63436;26.334;50.194;2023-03-11T15:05:36;36;33;
72793;PMS5003;63436;26.334;50.194;2023-03-11T15:08:02;34;30;
72793;PMS5003;63436;26.334;50.194;2023-03-11T15:10:26;32;31;
72793;PMS5003;63436;26.334;50.194;2023-03-11T15:15:21;54;45;
72793;PMS5003;63436;26.334;50.194;2023-03-11T15:22:35;27;27;
72793;PMS5003;63436;26.334;50.194;2023-03-11T15:25:00;28;27;
72793;PMS5003;63436;26.334;50.194;2023-03-11T15:27:28;31;29;
72793;PMS5003;63436;26.334;50.194;2023-03-11T15:29:51;27;25;
72793;PMS5003;63436;26.334;50.194;2023-03-11T15:32:25;29;26;
72793;PMS5003;63436;26.334;50.194;2023-03-11T15:34:43;29;28;
72793;PMS5003;63436;26.334;50.194;2023-03-11T15:39:41;28;24;
72793;PMS5003;63436;26.334;50.194;2023-03-11T15:41:59;26;24;
72793;PMS5003;63436;26.334;50.194;2023-03-11T15:44:25;23;22;
72793;PMS5003;63436;26.334;50.194;2023-03-11T15:46:50;24;24;
72793;PMS5003;63436;26.334;50.194;2023-03-11T15:49:15;25;23;
72793;PMS5003;63436;26.334;50.194;2023-03-11T15:51:41;23;20;
72793;PMS5003;63436;26.334;50.194;2023-03-11T15:54:06;27;26;
72793;PMS5003;63436;26.334;50.194;2023-03-11T15:56:33;27;26;
72793;PMS5003;63436;26.334;50.194;2023-03-11T15:58:57;23;22;
72793;PMS5003;63436;26.334;50.194;2023-03-11T16:01:22;24;24;
72793;PMS5003;63436;26.334;50.194;2023-03-11T16:03:48;30;28;
72793;PMS5003;63436;26.334;50.194;2023-03-11T16:06:13;20;20;
72793;PMS5003;63436;26.334;50.194;2023-03-11T16:08:39;32;27;
72793;PMS5003;63436;26.334;50.194;2023-03-11T16:11:10;29;26;
72793;PMS5003;63436;26.334;50.194;2023-03-11T16:16:00;29;26;
72793;PMS5003;63436;26.334;50.194;2023-03-11T16:18:21;30;26;
72793;PMS5003;63436;26.334;50.194;2023-03-11T16:20:52;29;27;
72793;PMS5003;63436;26.334;50.194;2023-03-11T16:23:18;26;26;
72793;PMS5003;63436;26.334;50.194;2023-03-11T16:25:38;33;27;
72793;PMS5003;63436;26.334;50.194;2023-03-11T16:28:03;32;29;
72793;PMS5003;63436;26.334;50.194;2023-03-11T16:30:29;27;26;